Time;durP1;ratioP1;P1;durP2;ratioP2;P2;SDS_P1;SDS_P2;PMS_P1;PMS_P2;Temp;Humidity;BMP_temperature;BMP_pressure;BME280_temperature;BME280_humidity;BME280_pressure;Samples;Min_cycle;Max_cycle;Signal;HPM_P1;HPM_P2
2022/02/01 00:00:11;;;;;;;75.72;51.63;;;;;;;;;;5111251;28;20042;-74
2022/02/01 00:02:50;;;;;;;72.82;49.05;;;;;;;;;;5112473;28;20050;-74
2022/02/01 00:06:05;;;;;;;59.30;40.67;;;;;;;;;;5115474;28;20047;-74
2022/02/01 00:09:23;;;;;;;53.58;37.15;;;;;;;;;;5115100;28;20529;-74
2022/02/01 00:35:39;;;;;;;1.33;0.90;;;;;;;;;;5115027;28;20043;-73
2022/02/01 00:39:05;;;;;;;1.33;0.90;;;;;;;;;;5114620;28;20032;-74
2022/02/01 00:42:10;;;;;;;1.23;0.85;;;;;;;;;;5113848;28;20035;-73
2022/02/01 00:45:14;;;;;;;2.90;1.50;;;;;;;;;;5114836;28;20380;-74
2022/02/01 00:48:18;;;;;;;2.40;1.17;;;;;;;;;;5114294;28;20048;-74
2022/02/01 00:51:23;;;;;;;1.33;0.80;;;;;;;;;;5114443;28;20479;-74
2022/02/01 00:54:27;;;;;;;2.50;0.82;;;;;;;;;;5114347;28;20028;-74
2022/02/01 00:57:32;;;;;;;3.42;1.00;;;;;;;;;;5114624;28;20027;-74
2022/02/01 01:00:36;;;;;;;1.50;0.70;;;;;;;;;;5114443;28;20044;-73
2022/02/01 01:03:40;;;;;;;1.13;0.77;;;;;;;;;;5114339;28;20035;-74
2022/02/01 01:06:45;;;;;;;0.98;0.80;;;;;;;;;;5114615;28;20031;-74
2022/02/01 01:09:49;;;;;;;1.67;0.80;;;;;;;;;;5114319;28;20356;-74
2022/02/01 01:13:05;;;;;;;2.83;1.02;;;;;;;;;;5114892;28;20483;-74
2022/02/01 01:53:30;;;;;;;3.33;1.35;;;;;;;;;;5113748;28;20497;-73
2022/02/01 01:56:09;;;;;;;2.20;1.55;;;;;;;;;;5120713;28;20036;-74
2022/02/01 01:59:14;;;;;;;3.40;2.00;;;;;;;;;;5113824;28;20371;-74
2022/02/01 02:02:18;;;;;;;2.00;1.10;;;;;;;;;;5113073;28;20027;-74
2022/02/01 02:05:23;;;;;;;1.10;0.80;;;;;;;;;;5112890;28;20035;-73
2022/02/01 02:08:28;;;;;;;2.28;0.90;;;;;;;;;;5113470;28;20044;-73
2022/02/01 02:14:52;;;;;;;1.85;0.60;;;;;;;;;;5113002;28;20043;-74
2022/02/01 02:17:59;;;;;;;1.35;0.60;;;;;;;;;;5112114;28;20036;-73
2022/02/01 02:21:05;;;;;;;2.67;0.60;;;;;;;;;;5113053;28;20036;-74
2022/02/01 02:24:09;;;;;;;2.78;0.50;;;;;;;;;;5112967;28;20036;-74
2022/02/01 02:27:14;;;;;;;1.38;0.55;;;;;;;;;;5111955;28;20353;-74
2022/02/01 02:30:18;;;;;;;3.10;0.68;;;;;;;;;;5112372;28;20043;-74
2022/02/01 02:33:22;;;;;;;1.75;0.55;;;;;;;;;;5112498;28;20035;-74
2022/02/01 02:36:26;;;;;;;1.73;0.60;;;;;;;;;;5111930;28;20035;-75
2022/02/01 02:39:35;;;;;;;4.80;1.45;;;;;;;;;;5112295;28;20035;-74
2022/02/01 02:46:02;;;;;;;1.38;0.82;;;;;;;;;;5111636;28;20035;-74
2022/02/01 02:49:07;;;;;;;1.83;0.57;;;;;;;;;;5111170;28;20043;-74
2022/02/01 02:52:11;;;;;;;1.70;0.50;;;;;;;;;;5112133;28;20043;-74
2022/02/01 02:55:15;;;;;;;1.77;0.50;;;;;;;;;;5111962;28;20039;-74
2022/02/01 02:58:19;;;;;;;0.93;0.40;;;;;;;;;;5112152;28;20036;-74
2022/02/01 03:01:24;;;;;;;2.20;0.55;;;;;;;;;;5111088;28;20599;-74
2022/02/01 03:04:30;;;;;;;0.90;0.52;;;;;;;;;;5112301;28;20497;-74
2022/02/01 03:07:34;;;;;;;5.07;0.73;;;;;;;;;;5111648;28;20044;-74
2022/02/01 03:10:39;;;;;;;4.05;1.00;;;;;;;;;;5111744;28;20036;-74
2022/02/01 03:13:55;;;;;;;3.60;0.98;;;;;;;;;;5111893;28;20032;-74
2022/02/01 03:20:09;;;;;;;1.27;0.43;;;;;;;;;;5111852;28;20039;-75
2022/02/01 03:23:14;;;;;;;1.05;0.57;;;;;;;;;;5111985;28;20471;-75
2022/02/01 03:26:18;;;;;;;1.83;0.50;;;;;;;;;;5110606;28;20039;-75
2022/02/01 03:29:22;;;;;;;3.22;0.43;;;;;;;;;;5111259;28;20039;-75
2022/02/01 03:32:27;;;;;;;1.05;0.30;;;;;;;;;;5111582;28;20487;-75
2022/02/01 03:35:31;;;;;;;2.72;0.52;;;;;;;;;;5111529;28;20376;-74
2022/02/01 03:38:35;;;;;;;0.47;0.30;;;;;;;;;;5111525;28;20032;-73
2022/02/01 03:41:40;;;;;;;0.57;0.40;;;;;;;;;;5111619;28;20040;-74
2022/02/01 03:44:44;;;;;;;0.57;0.30;;;;;;;;;;5111428;28;20031;-74
2022/02/01 03:47:49;;;;;;;1.85;0.40;;;;;;;;;;5111098;28;20044;-74
2022/02/01 03:50:53;;;;;;;2.10;0.50;;;;;;;;;;5110359;28;20040;-74
2022/02/01 03:53:57;;;;;;;3.60;0.63;;;;;;;;;;5111484;28;20376;-73
2022/02/01 03:57:03;;;;;;;0.65;0.50;;;;;;;;;;5111100;28;20031;-74
2022/02/01 04:00:08;;;;;;;1.15;0.50;;;;;;;;;;5111023;28;20035;-74
2022/02/01 04:03:16;;;;;;;0.40;0.40;;;;;;;;;;5111414;28;20036;-75
2022/02/01 04:06:20;;;;;;;2.40;0.55;;;;;;;;;;5111209;28;20031;-74
2022/02/01 04:09:26;;;;;;;2.90;0.70;;;;;;;;;;5111085;28;20499;-75
2022/02/01 04:12:31;;;;;;;3.83;0.73;;;;;;;;;;5110556;28;20036;-75
2022/02/01 04:15:35;;;;;;;1.75;0.52;;;;;;;;;;5111379;28;20039;-75
2022/02/01 04:18:39;;;;;;;3.90;0.90;;;;;;;;;;5110974;28;20032;-74
2022/02/01 04:21:56;;;;;;;8.52;0.82;;;;;;;;;;5111058;28;20032;-73
2022/02/01 04:25:01;;;;;;;4.97;0.90;;;;;;;;;;5111364;28;20044;-74
2022/02/01 04:28:05;;;;;;;4.72;1.30;;;;;;;;;;5110101;28;20044;-73
2022/02/01 04:31:09;;;;;;;5.78;1.45;;;;;;;;;;5111184;28;20555;-73
2022/02/01 04:34:14;;;;;;;6.13;2.35;;;;;;;;;;5110416;28;20035;-74
2022/02/01 04:37:18;;;;;;;5.38;1.48;;;;;;;;;;5111188;28;20032;-74
2022/02/01 04:40:23;;;;;;;3.83;1.20;;;;;;;;;;5110824;28;20036;-76
2022/02/01 04:43:28;;;;;;;5.97;1.23;;;;;;;;;;5110002;28;20035;-74
2022/02/01 04:46:32;;;;;;;4.07;1.00;;;;;;;;;;5110684;28;20039;-73
2022/02/01 04:49:37;;;;;;;4.15;1.17;;;;;;;;;;5111482;28;20047;-74
2022/02/01 04:52:44;;;;;;;4.78;1.20;;;;;;;;;;5114774;28;20031;-74
2022/02/01 04:55:54;;;;;;;5.63;1.30;;;;;;;;;;5114703;28;20031;-74
2022/02/01 04:58:58;;;;;;;3.92;1.25;;;;;;;;;;5113685;28;20032;-74
2022/02/01 05:02:03;;;;;;;4.45;1.30;;;;;;;;;;5114409;28;20031;-75
2022/02/01 05:05:07;;;;;;;4.53;1.02;;;;;;;;;;5114325;28;20035;-74
2022/02/01 05:08:13;;;;;;;2.47;0.88;;;;;;;;;;5113917;28;20039;-74
2022/02/01 05:11:17;;;;;;;6.07;1.20;;;;;;;;;;5113190;28;20035;-74
2022/02/01 05:14:27;;;;;;;3.42;1.02;;;;;;;;;;5113896;28;20040;-74
2022/02/01 05:17:31;;;;;;;6.38;1.13;;;;;;;;;;5113158;28;20032;-74
2022/02/01 05:20:47;;;;;;;2.92;1.13;;;;;;;;;;5114141;28;20047;-74
2022/02/01 05:23:52;;;;;;;2.60;1.00;;;;;;;;;;5114144;28;20047;-74
2022/02/01 05:26:58;;;;;;;1.85;1.10;;;;;;;;;;5089771;28;20467;-74
2022/02/01 05:30:03;;;;;;;5.47;1.15;;;;;;;;;;5113624;28;20035;-74
2022/02/01 05:33:07;;;;;;;3.33;1.88;;;;;;;;;;5113724;28;20491;-75
2022/02/01 05:36:12;;;;;;;3.85;0.85;;;;;;;;;;5113628;28;20031;-74
2022/02/01 05:39:17;;;;;;;2.05;1.00;;;;;;;;;;5113762;28;20027;-75
2022/02/01 05:42:27;;;;;;;3.53;1.00;;;;;;;;;;5113527;28;20036;-74
2022/02/01 05:45:33;;;;;;;10.13;1.05;;;;;;;;;;5113774;28;20028;-74
2022/02/01 05:48:37;;;;;;;1.95;0.82;;;;;;;;;;5112895;28;20051;-74
2022/02/01 05:51:42;;;;;;;1.98;0.55;;;;;;;;;;5113571;28;20035;-74
2022/02/01 05:54:46;;;;;;;2.08;0.50;;;;;;;;;;5113232;28;20036;-74
2022/02/01 05:57:53;;;;;;;1.83;1.13;;;;;;;;;;5113448;28;20035;-75
2022/02/01 06:00:57;;;;;;;1.52;0.80;;;;;;;;;;5112357;28;20471;-74
2022/02/01 06:04:01;;;;;;;1.23;0.80;;;;;;;;;;5113114;28;20036;-73
2022/02/01 06:07:06;;;;;;;2.50;0.95;;;;;;;;;;5112934;28;20039;-74
2022/02/01 06:10:10;;;;;;;2.42;0.90;;;;;;;;;;5112290;28;20048;-74
2022/02/01 06:13:18;;;;;;;1.85;0.73;;;;;;;;;;5112782;28;20028;-74
2022/02/01 06:16:23;;;;;;;9.02;0.90;;;;;;;;;;5113070;28;20039;-74
2022/02/01 06:19:28;;;;;;;7.97;1.20;;;;;;;;;;5112998;28;20478;-74
2022/02/01 06:22:32;;;;;;;1.55;0.90;;;;;;;;;;5112657;28;20031;-75
2022/02/01 06:25:50;;;;;;;2.08;0.88;;;;;;;;;;5112708;28;20551;-74
2022/02/01 06:28:54;;;;;;;1.30;0.57;;;;;;;;;;5111397;28;20047;-75
2022/02/01 06:32:00;;;;;;;1.92;1.20;;;;;;;;;;5112467;28;20032;-74
2022/02/01 06:35:04;;;;;;;2.17;0.65;;;;;;;;;;5112216;28;20497;-75
2022/02/01 06:38:09;;;;;;;4.68;0.85;;;;;;;;;;5112079;28;20031;-67
2022/02/01 06:41:14;;;;;;;2.47;1.30;;;;;;;;;;5111981;28;20039;-67
2022/02/01 06:44:18;;;;;;;2.63;0.80;;;;;;;;;;5111563;28;20040;-67
2022/02/01 06:47:23;;;;;;;3.47;0.88;;;;;;;;;;5111008;28;20380;-67
2022/02/01 06:50:27;;;;;;;1.13;0.70;;;;;;;;;;5112156;28;20036;-67
2022/02/01 06:53:35;;;;;;;4.10;1.25;;;;;;;;;;5099788;28;20036;-67
2022/02/01 06:56:40;;;;;;;5.15;1.20;;;;;;;;;;5112318;28;20039;-68
2022/02/01 06:59:43;;;;;;;4.15;1.25;;;;;;;;;;5111146;28;20367;-68
2022/02/01 07:02:48;;;;;;;6.03;1.25;;;;;;;;;;5112202;28;20039;-67
2022/02/01 07:05:54;;;;;;;7.47;1.50;;;;;;;;;;5112057;28;20487;-68
2022/02/01 07:09:00;;;;;;;4.78;1.55;;;;;;;;;;5110416;28;20047;-68
2022/02/01 07:12:05;;;;;;;5.30;1.33;;;;;;;;;;5111240;28;20036;-69
2022/02/01 07:15:09;;;;;;;11.18;1.58;;;;;;;;;;5111851;28;20043;-67
2022/02/01 07:18:14;;;;;;;3.05;1.60;;;;;;;;;;5111408;28;20043;-68
2022/02/01 07:21:18;;;;;;;3.15;1.30;;;;;;;;;;5111643;28;20380;-68
2022/02/01 07:24:31;;;;;;;2.00;1.20;;;;;;;;;;5099439;28;20036;-68
2022/02/01 07:27:40;;;;;;;6.20;1.80;;;;;;;;;;5111604;28;20044;-68
2022/02/01 07:30:45;;;;;;;7.45;1.90;;;;;;;;;;5111345;28;20047;-70
2022/02/01 07:33:49;;;;;;;9.45;1.88;;;;;;;;;;5111514;28;20040;-69
2022/02/01 07:36:53;;;;;;;3.92;1.80;;;;;;;;;;5111716;28;20368;-67
2022/02/01 07:39:58;;;;;;;5.82;1.88;;;;;;;;;;5111244;28;20098;-68
2022/02/01 07:43:02;;;;;;;5.38;1.60;;;;;;;;;;5111263;28;20031;-68
2022/02/01 07:46:11;;;;;;;5.72;2.58;;;;;;;;;;5110325;28;20044;-69
2022/02/01 07:49:18;;;;;;;4.38;1.42;;;;;;;;;;5108910;28;20043;-69
2022/02/01 07:52:22;;;;;;;2.80;1.30;;;;;;;;;;5111080;28;20031;-70
2022/02/01 07:55:27;;;;;;;1.83;1.25;;;;;;;;;;5111305;28;20039;-67
2022/02/01 07:58:31;;;;;;;2.83;1.27;;;;;;;;;;5110342;28;20151;-68
2022/02/01 08:01:36;;;;;;;5.40;1.65;;;;;;;;;;5110935;28;20040;-69
2022/02/01 08:04:40;;;;;;;3.53;1.80;;;;;;;;;;5111242;28;20040;-72
2022/02/01 08:07:45;;;;;;;3.33;1.95;;;;;;;;;;5111120;28;20039;-68
2022/02/01 08:10:52;;;;;;;2.03;1.58;;;;;;;;;;5110867;28;20039;-69
2022/02/01 08:20:38;;;;;;;4.75;1.85;;;;;;;;;;5110793;28;20040;-68
2022/02/01 08:23:42;;;;;;;5.07;1.85;;;;;;;;;;5111277;28;20031;-68
2022/02/01 08:26:47;;;;;;;3.88;2.00;;;;;;;;;;5114915;28;20388;-68
2022/02/01 08:29:51;;;;;;;5.05;2.38;;;;;;;;;;5114781;28;20044;-68
2022/02/01 08:32:56;;;;;;;6.18;2.00;;;;;;;;;;5115055;28;20035;-68
2022/02/01 08:36:00;;;;;;;4.57;2.45;;;;;;;;;;5114932;28;20048;-68
2022/02/01 08:39:04;;;;;;;8.90;2.75;;;;;;;;;;5114117;28;20468;-68
2022/02/01 08:42:09;;;;;;;6.45;2.45;;;;;;;;;;5114569;28;20368;-69
2022/02/01 08:45:20;;;;;;;4.82;2.47;;;;;;;;;;5114471;28;20035;-67
2022/02/01 08:48:25;;;;;;;5.68;2.58;;;;;;;;;;5114241;28;20043;-66
2022/02/01 08:51:38;;;;;;;12.63;4.05;;;;;;;;;;5113966;28;20043;-67
2022/02/01 08:54:43;;;;;;;11.60;4.95;;;;;;;;;;5114459;28;20039;-70
2022/02/01 08:57:48;;;;;;;10.93;3.20;;;;;;;;;;5114590;28;20032;-69
2022/02/01 09:00:52;;;;;;;7.18;3.00;;;;;;;;;;5113755;28;20050;-67
2022/02/01 09:03:58;;;;;;;11.85;4.05;;;;;;;;;;5113973;28;20048;-67
2022/02/01 09:07:04;;;;;;;11.88;4.38;;;;;;;;;;5112790;28;20052;-67
2022/02/01 09:10:08;;;;;;;8.98;4.28;;;;;;;;;;5113494;28;20515;-69
2022/02/01 09:13:12;;;;;;;10.82;3.92;;;;;;;;;;5113890;28;20372;-68
2022/02/01 09:16:19;;;;;;;7.32;3.83;;;;;;;;;;5113396;28;20046;-67
2022/02/01 09:19:23;;;;;;;11.65;4.00;;;;;;;;;;5113560;28;20035;-68
2022/02/01 09:22:27;;;;;;;8.45;3.83;;;;;;;;;;5113885;28;20046;-67
2022/02/01 09:25:32;;;;;;;8.45;4.53;;;;;;;;;;5113596;28;20028;-68
2022/02/01 09:28:36;;;;;;;5.28;3.17;;;;;;;;;;5113472;28;20047;-67
2022/02/01 09:31:40;;;;;;;9.20;4.00;;;;;;;;;;5113550;28;20278;-69
2022/02/01 09:34:45;;;;;;;8.65;3.90;;;;;;;;;;5113226;28;20036;-67
2022/02/01 09:37:49;;;;;;;7.70;3.30;;;;;;;;;;5113523;28;20040;-68
2022/02/01 09:40:54;;;;;;;9.63;3.35;;;;;;;;;;5112250;28;20035;-68
2022/02/01 09:43:58;;;;;;;8.60;2.85;;;;;;;;;;5111925;28;20036;-68
2022/02/01 09:47:03;;;;;;;9.13;3.50;;;;;;;;;;5112242;28;20044;-67
2022/02/01 09:50:08;;;;;;;7.10;4.03;;;;;;;;;;5111802;28;20043;-67
2022/02/01 09:53:12;;;;;;;6.65;2.88;;;;;;;;;;5111079;28;20062;-67
2022/02/01 09:56:17;;;;;;;6.30;3.30;;;;;;;;;;5111947;28;20044;-67
2022/02/01 09:59:30;;;;;;;9.55;3.80;;;;;;;;;;5111686;28;20035;-67
2022/02/01 10:02:39;;;;;;;9.05;3.60;;;;;;;;;;5111419;28;20039;-67
2022/02/01 10:05:44;;;;;;;9.27;2.88;;;;;;;;;;5111899;28;20036;-67
2022/02/01 10:08:48;;;;;;;10.23;4.82;;;;;;;;;;5111991;28;20051;-67
2022/02/01 10:11:53;;;;;;;7.10;3.35;;;;;;;;;;5112390;28;20063;-68
2022/02/01 10:15:05;;;;;;;8.00;3.60;;;;;;;;;;5112715;28;20048;-67
2022/02/01 10:18:09;;;;;;;7.57;3.78;;;;;;;;;;5112490;28;20377;-68
2022/02/01 10:21:15;;;;;;;9.73;3.30;;;;;;;;;;5112681;28;20035;-67
2022/02/01 10:24:28;;;;;;;11.27;4.07;;;;;;;;;;5112783;28;20036;-67
2022/02/01 10:27:34;;;;;;;13.63;4.78;;;;;;;;;;5112603;28;20046;-67
2022/02/01 10:30:43;;;;;;;9.85;3.83;;;;;;;;;;5112512;28;20057;-66
2022/02/01 10:34:03;;;;;;;8.57;3.80;;;;;;;;;;5112353;28;20043;-65
2022/02/01 10:37:18;;;;;;;9.57;3.78;;;;;;;;;;5112518;28;20039;-66
2022/02/01 10:40:23;;;;;;;9.90;4.28;;;;;;;;;;5112432;28;20040;-66
2022/02/01 10:43:31;;;;;;;6.50;2.75;;;;;;;;;;5112298;28;20036;-67
2022/02/01 10:46:49;;;;;;;6.78;3.00;;;;;;;;;;5111748;28;20044;-66
2022/02/01 10:49:53;;;;;;;7.28;3.35;;;;;;;;;;5111204;28;20044;-67
2022/02/01 10:52:57;;;;;;;12.32;3.42;;;;;;;;;;5111358;28;20040;-67
2022/02/01 10:56:03;;;;;;;4.43;1.73;;;;;;;;;;5109263;28;20503;-66
2022/02/01 10:59:08;;;;;;;6.43;2.20;;;;;;;;;;5110794;28;20039;-67
2022/02/01 11:02:12;;;;;;;6.60;2.10;;;;;;;;;;5111068;28;20040;-67
2022/02/01 11:05:18;;;;;;;11.10;1.90;;;;;;;;;;5110827;28;20048;-67
2022/02/01 11:08:27;;;;;;;8.50;2.20;;;;;;;;;;5110668;28;20032;-66
2022/02/01 11:11:31;;;;;;;13.13;2.08;;;;;;;;;;5111258;28;20035;-66
2022/02/01 11:14:40;;;;;;;10.60;2.10;;;;;;;;;;5111682;28;20032;-67
2022/02/01 11:17:46;;;;;;;11.05;2.88;;;;;;;;;;5111630;28;20035;-68
2022/02/01 11:20:52;;;;;;;10.88;2.58;;;;;;;;;;5110941;28;20500;-67
2022/02/01 11:24:04;;;;;;;6.35;2.47;;;;;;;;;;5111422;28;20046;-68
2022/02/01 11:27:20;;;;;;;11.50;3.20;;;;;;;;;;5110412;28;20035;-67
2022/02/01 11:30:25;;;;;;;8.13;2.78;;;;;;;;;;5111150;28;20043;-67
2022/02/01 11:33:59;;;;;;;7.45;2.97;;;;;;;;;;5111055;28;20035;-68
2022/02/01 11:37:06;;;;;;;7.47;3.38;;;;;;;;;;5111327;28;20032;-68
2022/02/01 11:40:13;;;;;;;8.48;2.45;;;;;;;;;;5111376;28;20039;-68
2022/02/01 11:43:24;;;;;;;10.63;3.20;;;;;;;;;;5111319;28;20451;-71
2022/02/01 11:46:28;;;;;;;18.58;3.00;;;;;;;;;;5111045;28;20035;-70
2022/02/01 11:49:33;;;;;;;11.80;2.72;;;;;;;;;;5110553;28;20409;-68
2022/02/01 11:52:45;;;;;;;6.72;2.70;;;;;;;;;;5111240;28;20031;-69
2022/02/01 11:55:50;;;;;;;26.85;14.52;;;;;;;;;;5111306;28;20479;-70
2022/02/01 11:59:00;;;;;;;6.78;3.72;;;;;;;;;;5111056;28;20046;-68
2022/02/01 12:02:06;;;;;;;11.52;2.97;;;;;;;;;;5115715;28;20372;-69
2022/02/01 12:05:16;;;;;;;4.72;1.75;;;;;;;;;;5115286;28;20039;-71
2022/02/01 12:08:21;;;;;;;7.32;3.05;;;;;;;;;;5115384;28;20040;-66
2022/02/01 12:11:25;;;;;;;9.25;2.72;;;;;;;;;;5114445;28;20040;-67
2022/02/01 12:14:30;;;;;;;6.68;2.45;;;;;;;;;;5115052;28;20036;-67
2022/02/01 12:17:37;;;;;;;6.68;2.47;;;;;;;;;;5114983;28;20380;-68
2022/02/01 12:20:43;;;;;;;8.90;2.90;;;;;;;;;;5115148;28;20039;-67
2022/02/01 12:23:49;;;;;;;7.13;2.35;;;;;;;;;;5114792;28;20043;-67
2022/02/01 12:26:54;;;;;;;5.88;2.20;;;;;;;;;;5114843;28;20040;-67
2022/02/01 12:30:00;;;;;;;6.85;2.20;;;;;;;;;;5114654;28;20043;-67
2022/02/01 12:33:04;;;;;;;7.70;2.10;;;;;;;;;;5114768;28;20031;-67
2022/02/01 12:36:09;;;;;;;6.40;2.10;;;;;;;;;;5114927;28;20048;-68
2022/02/01 12:39:28;;;;;;;8.20;2.10;;;;;;;;;;5114571;28;20032;-67
2022/02/01 12:42:42;;;;;;;6.85;2.60;;;;;;;;;;5114795;28;20036;-67
2022/02/01 12:48:53;;;;;;;13.40;5.43;;;;;;;;;;5114212;28;20032;-68
2022/02/01 12:51:58;;;;;;;8.00;3.80;;;;;;;;;;5113709;28;20043;-67
2022/02/01 12:55:10;;;;;;;7.55;2.63;;;;;;;;;;5114536;28;20040;-67
2022/02/01 12:58:14;;;;;;;;;;;;;;;;;;5114570;28;20051;-68
2022/02/01 13:01:27;;;;;;;6.93;2.33;;;;;;;;;;5113418;28;19915;-67
2022/02/01 13:04:32;;;;;;;5.18;2.70;;;;;;;;;;5114078;28;20498;-68
2022/02/01 13:17:48;;;;;;;10.45;3.38;;;;;;;;;;5113701;28;20044;-68
2022/02/01 13:21:01;;;;;;;8.30;3.97;;;;;;;;;;5114097;28;20043;-68
2022/02/01 13:24:06;;;;;;;8.95;3.28;;;;;;;;;;5113218;28;20035;-67
2022/02/01 13:27:24;;;;;;;6.05;2.83;;;;;;;;;;5111042;28;20039;-69
2022/02/01 13:30:28;;;;;;;7.05;2.63;;;;;;;;;;5111421;28;20043;-71
2022/02/01 13:33:33;;;;;;;8.30;3.22;;;;;;;;;;5112067;28;20040;-66
2022/02/01 13:36:47;;;;;;;12.65;3.13;;;;;;;;;;5112457;28;20047;-66
2022/02/01 13:39:51;;;;;;;8.95;2.92;;;;;;;;;;5112455;28;20039;-70
2022/02/01 13:42:57;;;;;;;11.73;3.90;;;;;;;;;;5112186;28;20043;-68
2022/02/01 13:46:02;;;;;;;6.28;2.08;;;;;;;;;;5112145;28;20040;-67
2022/02/01 13:49:11;;;;;;;6.93;2.42;;;;;;;;;;5072562;28;20044;-69
2022/02/01 13:52:20;;;;;;;7.13;2.33;;;;;;;;;;5072730;28;20033;-68
2022/02/01 13:55:25;;;;;;;6.90;2.40;;;;;;;;;;5072831;28;20045;-69
2022/02/01 13:58:34;;;;;;;7.97;2.28;;;;;;;;;;5072947;28;20358;-72
2022/02/01 14:01:40;;;;;;;5.43;2.00;;;;;;;;;;5072482;28;20052;-69
2022/02/01 14:05:03;;;;;;;8.07;4.68;;;;;;;;;;5072688;28;20040;-68
2022/02/01 14:08:26;;;;;;;9.18;2.83;;;;;;;;;;5072649;28;20045;-67
2022/02/01 14:11:48;;;;;;;7.35;2.38;;;;;;;;;;5072444;28;20044;-68
2022/02/01 14:28:48;;;;;;;9.43;2.20;;;;;;;;;;5071976;28;20049;-67
2022/02/01 14:35:05;;;;;;;4.40;2.33;;;;;;;;;;5072052;28;20037;-67
2022/02/01 14:38:35;;;;;;;10.13;2.83;;;;;;;;;;5071673;28;20040;-67
2022/02/01 14:44:56;;;;;;;13.43;7.65;;;;;;;;;;5071865;28;20040;-67
2022/02/01 14:48:01;;;;;;;7.70;4.72;;;;;;;;;;5096497;28;20663;-68
2022/02/01 14:51:06;;;;;;;16.52;6.18;;;;;;;;;;5111965;28;20404;-68
2022/02/01 14:54:16;;;;;;;9.20;4.00;;;;;;;;;;5112317;28;20040;-72
2022/02/01 15:04:50;;;;;;;4.28;2.30;;;;;;;;;;5111623;28;20035;-68
2022/02/01 15:07:51;;;;;;;8.13;3.60;;;;;;;;;;5111680;28;20039;-67
2022/02/01 15:14:20;;;;;;;6.43;2.72;;;;;;;;;;5111871;28;20039;-66
2022/02/01 15:17:24;;;;;;;6.00;2.17;;;;;;;;;;5111837;28;20039;-67
2022/02/01 15:20:29;;;;;;;3.25;1.77;;;;;;;;;;5111834;28;20035;-68
2022/02/01 15:23:33;;;;;;;3.17;1.95;;;;;;;;;;5111581;28;20451;-66
2022/02/01 15:26:37;;;;;;;7.18;1.45;;;;;;;;;;5111548;28;20036;-67
2022/02/01 15:29:43;;;;;;;3.25;1.60;;;;;;;;;;5111398;28;20043;-67
2022/02/01 15:32:50;;;;;;;7.72;2.08;;;;;;;;;;5110714;28;20384;-69
2022/02/01 15:35:59;;;;;;;4.72;2.20;;;;;;;;;;5110886;28;20048;-69
2022/02/01 15:56:51;;;;;;;2.28;1.15;;;;;;;;;;5111103;28;20035;-70
2022/02/01 15:59:31;;;;;;;2.00;1.80;;;;;;;;;;5116845;28;20044;-71
2022/02/01 16:02:38;;;;;;;3.63;1.90;;;;;;;;;;5111559;28;20040;-70
2022/02/01 16:05:42;;;;;;;4.32;2.70;;;;;;;;;;5110605;28;20028;-70
2022/02/01 16:08:47;;;;;;;4.28;2.72;;;;;;;;;;5110803;28;20471;-70
2022/02/01 16:11:52;;;;;;;3.75;2.50;;;;;;;;;;5110584;28;20031;-69
2022/02/01 16:14:57;;;;;;;6.57;3.08;;;;;;;;;;5110043;28;20032;-69
2022/02/01 16:18:01;;;;;;;8.00;3.85;;;;;;;;;;5110840;28;20044;-68
2022/02/01 16:21:05;;;;;;;6.28;3.38;;;;;;;;;;5110155;28;20036;-69
2022/02/01 16:24:10;;;;;;;5.78;2.80;;;;;;;;;;5110734;28;20039;-69
2022/02/01 16:27:14;;;;;;;8.25;4.60;;;;;;;;;;5110049;28;20368;-69
2022/02/01 16:30:23;;;;;;;9.23;5.78;;;;;;;;;;5109836;28;20043;-71
2022/02/01 16:33:28;;;;;;;9.10;4.30;;;;;;;;;;5110528;28;20471;-71
2022/02/01 16:36:33;;;;;;;5.63;2.80;;;;;;;;;;5111030;28;20392;-71
2022/02/01 16:39:37;;;;;;;4.70;1.95;;;;;;;;;;5110719;28;20040;-70
2022/02/01 16:42:44;;;;;;;2.90;2.42;;;;;;;;;;5110549;28;20471;-69
2022/02/01 16:45:49;;;;;;;4.03;2.20;;;;;;;;;;5112386;28;20040;-70
2022/02/01 16:48:53;;;;;;;4.40;2.72;;;;;;;;;;5114143;28;20048;-71
2022/02/01 16:52:02;;;;;;;6.72;3.50;;;;;;;;;;5113637;28;20043;-69
2022/02/01 16:55:14;;;;;;;7.90;3.80;;;;;;;;;;5113678;28;20044;-70
2022/02/01 16:58:26;;;;;;;7.88;2.15;;;;;;;;;;5114201;28;20031;-69
2022/02/01 17:01:30;;;;;;;5.05;2.20;;;;;;;;;;5114559;28;20372;-71
2022/02/01 17:04:36;;;;;;;2.72;1.58;;;;;;;;;;5113980;28;20048;-71
2022/02/01 17:07:40;;;;;;;6.85;3.20;;;;;;;;;;5113851;28;20368;-69
2022/02/01 17:10:48;;;;;;;5.28;3.63;;;;;;;;;;5113878;28;20052;-70
2022/02/01 17:14:06;;;;;;;5.13;2.75;;;;;;;;;;5113967;28;20044;-70
2022/02/01 17:24:09;;;;;;;10.48;5.20;;;;;;;;;;5113774;28;20051;-71
2022/02/01 17:27:14;;;;;;;13.07;6.13;;;;;;;;;;5113298;28;20036;-71
2022/02/01 17:30:19;;;;;;;10.23;5.20;;;;;;;;;;5113384;28;20044;-71
2022/02/01 17:33:23;;;;;;;10.60;4.80;;;;;;;;;;5113232;28;20031;-69
2022/02/01 17:36:27;;;;;;;11.50;6.30;;;;;;;;;;5113363;28;20039;-70
2022/02/01 17:39:33;;;;;;;18.20;8.43;;;;;;;;;;5113250;28;20054;-69
2022/02/01 17:42:37;;;;;;;12.07;4.40;;;;;;;;;;5113048;28;20414;-70
2022/02/01 17:45:46;;;;;;;7.53;3.15;;;;;;;;;;5112530;28;20043;-70
2022/02/01 17:48:52;;;;;;;5.80;2.53;;;;;;;;;;5111983;28;20048;-69
2022/02/01 17:52:45;;;;;;;7.32;3.40;;;;;;;;;;5112487;28;20040;-68
2022/02/01 17:55:23;;;;;;;7.47;3.40;;;;;;;;;;5114869;28;20032;-69
2022/02/01 17:58:27;;;;;;;9.07;1.33;;;;;;;;;;5112974;28;20031;-68
2022/02/01 18:01:32;;;;;;;7.32;3.08;;;;;;;;;;5113003;28;20368;-69
2022/02/01 18:04:36;;;;;;;9.90;4.78;;;;;;;;;;5112821;28;20043;-68
2022/02/01 18:07:41;;;;;;;29.13;14.15;;;;;;;;;;5112647;28;20047;-69
2022/02/01 18:10:46;;;;;;;48.60;23.45;;;;;;;;;;5112612;28;20059;-68
2022/02/01 18:14:56;;;;;;;56.08;24.85;;;;;;;;;;5112723;28;20046;-69
2022/02/01 18:17:19;;;;;;;53.03;19.23;;;;;;;;;;5112678;28;20043;-67
2022/02/01 18:20:24;;;;;;;31.80;14.02;;;;;;;;;;5112550;28;20502;-67
2022/02/01 18:23:29;;;;;;;21.05;10.18;;;;;;;;;;5112304;28;20152;-73
2022/02/01 18:26:34;;;;;;;23.02;10.25;;;;;;;;;;5111606;28;20378;-72
2022/02/01 18:29:41;;;;;;;24.50;11.85;;;;;;;;;;5112305;28;20058;-73
2022/02/01 18:32:49;;;;;;;26.00;14.95;;;;;;;;;;5099639;28;20047;-73
2022/02/01 18:35:58;;;;;;;31.50;14.80;;;;;;;;;;5111980;28;20043;-72
2022/02/01 18:39:06;;;;;;;27.02;12.23;;;;;;;;;;5112074;28;20042;-72
2022/02/01 18:42:15;;;;;;;20.20;12.45;;;;;;;;;;5112195;28;20051;-73
2022/02/01 18:45:20;;;;;;;22.38;11.80;;;;;;;;;;5112193;28;20524;-72
2022/02/01 18:48:26;;;;;;;19.20;9.02;;;;;;;;;;5110690;28;20051;-72
2022/02/01 18:54:55;;;;;;;15.95;9.95;;;;;;;;;;5111709;28;20039;-72
2022/02/01 18:58:09;;;;;;;19.02;11.20;;;;;;;;;;5111817;28;20040;-72
2022/02/01 19:11:57;;;;;;;;;;;;;;;;;;5061697;28;20045;-74
2022/02/01 19:15:02;;;;;;;26.23;13.43;;;;;;;;;;5111378;28;19918;-74
2022/02/01 19:18:07;;;;;;;22.58;12.68;;;;;;;;;;5111562;28;20051;-75
2022/02/01 19:21:12;;;;;;;26.38;15.80;;;;;;;;;;5111455;28;20046;-75
2022/02/01 19:24:17;;;;;;;33.20;19.65;;;;;;;;;;5110701;28;20031;-74
2022/02/01 19:27:23;;;;;;;39.50;23.58;;;;;;;;;;5110362;28;20055;-74
2022/02/01 19:30:27;;;;;;;50.05;24.70;;;;;;;;;;5111417;28;20514;-75
2022/02/01 19:33:36;;;;;;;33.35;18.92;;;;;;;;;;5110422;28;20109;-75
2022/02/01 19:36:40;;;;;;;28.88;17.95;;;;;;;;;;5111456;28;20511;-78
2022/02/01 19:39:45;;;;;;;121.05;46.80;;;;;;;;;;5111380;28;20047;-76
2022/02/01 19:42:57;;;;;;;29.88;16.50;;;;;;;;;;5111371;28;20043;-75
2022/02/01 19:46:01;;;;;;;35.80;16.73;;;;;;;;;;5111491;28;20051;-75
2022/02/01 19:49:07;;;;;;;32.53;17.45;;;;;;;;;;5110774;28;20054;-75
2022/02/01 19:52:12;;;;;;;23.45;13.52;;;;;;;;;;5111372;28;20113;-75
2022/02/01 19:55:16;;;;;;;22.77;10.98;;;;;;;;;;5111210;28;20042;-75
2022/02/01 19:58:21;;;;;;;17.60;9.90;;;;;;;;;;5110883;28;20054;-75
2022/02/01 20:01:28;;;;;;;29.30;14.73;;;;;;;;;;5110049;28;20046;-74
2022/02/01 20:04:34;;;;;;;21.38;11.88;;;;;;;;;;5111198;28;20063;-76
2022/02/01 20:07:39;;;;;;;18.77;10.80;;;;;;;;;;5110992;28;20506;-75
2022/02/01 20:10:50;;;;;;;24.98;11.50;;;;;;;;;;5110601;28;20324;-75
2022/02/01 20:13:54;;;;;;;10.57;5.35;;;;;;;;;;5098689;28;20038;-75
2022/02/01 20:16:59;;;;;;;7.57;5.03;;;;;;;;;;5110720;28;20036;-75
2022/02/01 20:20:04;;;;;;;8.95;4.50;;;;;;;;;;5111262;28;20036;-76
2022/02/01 20:23:08;;;;;;;9.65;3.30;;;;;;;;;;5114002;28;20487;-76
2022/02/01 20:26:12;;;;;;;6.25;3.28;;;;;;;;;;5115198;28;20035;-75
2022/02/01 20:29:16;;;;;;;8.15;3.05;;;;;;;;;;5114886;28;20032;-75
2022/02/01 20:32:21;;;;;;;5.65;2.72;;;;;;;;;;5115295;28;20044;-74
2022/02/01 20:35:25;;;;;;;4.65;2.50;;;;;;;;;;5115119;28;20376;-74
2022/02/01 20:38:31;;;;;;;4.68;2.72;;;;;;;;;;5114323;28;20044;-74
2022/02/01 20:41:37;;;;;;;4.72;2.40;;;;;;;;;;5115021;28;20035;-74
2022/02/01 20:44:41;;;;;;;5.60;2.00;;;;;;;;;;5114682;28;20039;-74
2022/02/01 20:47:45;;;;;;;5.10;1.60;;;;;;;;;;5114433;28;20356;-73
2022/02/01 20:50:50;;;;;;;4.00;2.83;;;;;;;;;;5114511;28;20052;-74
2022/02/01 20:53:55;;;;;;;3.75;1.40;;;;;;;;;;5114589;28;20035;-73
2022/02/01 20:56:59;;;;;;;2.50;1.27;;;;;;;;;;5114590;28;20456;-75
2022/02/01 21:00:04;;;;;;;3.45;2.78;;;;;;;;;;5102078;28;20404;-75
2022/02/01 21:03:09;;;;;;;4.72;1.30;;;;;;;;;;5114439;28;20357;-74
2022/02/01 21:06:13;;;;;;;4.20;1.70;;;;;;;;;;5114609;28;20027;-74
2022/02/01 21:09:17;;;;;;;4.35;2.25;;;;;;;;;;5114200;28;20043;-74